createdAt,value
2018-12-13T00:01:07.995Z,98578.08
2018-12-13T00:03:36.489Z,98570.32
2018-12-13T00:06:05.074Z,98567.35
2018-12-13T00:08:34.191Z,98576.23
2018-12-13T00:11:03.278Z,98567.37
2018-12-13T00:13:32.497Z,98573.00
2018-12-13T00:16:01.099Z,98568.43
2018-12-13T00:18:29.668Z,98564.16
2018-12-13T00:20:58.257Z,98568.70
2018-12-13T00:23:27.606Z,98572.45
2018-12-13T00:25:56.105Z,98564.94
2018-12-13T00:28:24.627Z,98565.77
2018-12-13T00:30:53.117Z,98563.06
2018-12-13T00:33:21.657Z,98561.47
2018-12-13T00:35:50.125Z,98561.45
2018-12-13T00:38:18.627Z,98555.83
2018-12-13T00:40:47.107Z,98553.69
2018-12-13T00:43:15.749Z,98554.47
2018-12-13T00:45:44.344Z,98541.88
2018-12-13T00:48:14.109Z,98547.23
2018-12-13T00:50:42.590Z,98540.25
2018-12-13T00:53:11.127Z,98544.02
2018-12-13T00:55:39.729Z,98537.84
2018-12-13T00:58:08.327Z,98537.56
2018-12-13T01:00:36.885Z,98542.12
2018-12-13T01:03:05.403Z,98542.93
2018-12-13T01:05:33.887Z,98539.98
2018-12-13T01:08:03.107Z,98543.75
2018-12-13T01:10:31.586Z,98541.34
2018-12-13T01:13:00.531Z,98547.23
2018-12-13T01:15:33.270Z,98541.59
2018-12-13T01:18:02.464Z,98544.29
2018-12-13T01:20:31.607Z,98544.02
2018-12-13T01:23:00.100Z,98540.52
2018-12-13T01:25:28.679Z,98538.10
2018-12-13T01:27:57.207Z,98537.03
2018-12-13T01:30:26.376Z,98538.37
2018-12-13T01:32:54.890Z,98533.02
2018-12-13T01:35:23.530Z,98532.76
2018-12-13T01:37:52.090Z,98527.63
2018-12-13T01:40:20.560Z,98528.98
2018-12-13T01:42:49.159Z,98519.86
2018-12-13T01:45:17.739Z,98515.84
2018-12-13T01:47:46.326Z,98518.00
2018-12-13T01:50:14.851Z,98508.32
2018-12-13T01:52:43.390Z,98504.82
2018-12-13T01:55:11.870Z,98503.22
2018-12-13T01:57:40.370Z,98510.73
2018-12-13T02:00:08.953Z,98508.05
2018-12-13T02:02:37.452Z,98503.75
2018-12-13T02:05:06.556Z,98499.19
2018-12-13T02:07:35.055Z,98498.67
2018-12-13T02:10:04.067Z,98502.41
2018-12-13T02:12:32.579Z,98494.36
2018-12-13T02:15:01.188Z,98491.95
2018-12-13T02:17:29.755Z,98496.23
2018-12-13T02:19:58.365Z,98500.28
2018-12-13T02:22:26.867Z,98497.88
2018-12-13T02:24:55.486Z,98496.80
2018-12-13T02:27:24.037Z,98497.84
2018-12-13T02:29:52.638Z,98502.14
2018-12-13T02:32:21.286Z,98499.47
2018-12-13T02:34:50.683Z,98503.21
2018-12-13T02:37:19.796Z,98502.41
2018-12-13T02:39:48.383Z,98502.16
2018-12-13T02:42:16.871Z,98497.86
2018-12-13T02:44:45.430Z,98497.84
2018-12-13T02:47:13.933Z,98492.77
2018-12-13T02:49:42.395Z,98491.69
2018-12-13T02:52:11.014Z,98489.28
2018-12-13T02:54:39.531Z,98487.09
2018-12-13T02:57:08.033Z,98486.58
2018-12-13T02:59:36.547Z,98486.05
2018-12-13T03:02:05.098Z,98483.62
2018-12-13T03:04:33.580Z,98482.81
2018-12-13T03:07:03.061Z,98480.92
2018-12-13T03:09:31.571Z,98477.45
2018-12-13T03:12:00.099Z,98474.79
2018-12-13T03:14:28.654Z,98473.16
2018-12-13T03:16:57.255Z,98475.84
2018-12-13T03:19:26.441Z,98480.67
2018-12-13T03:21:54.940Z,98466.98
2018-12-13T03:24:23.525Z,98468.06
2018-12-13T03:26:52.019Z,98468.84
2018-12-13T03:29:20.591Z,98468.30
2018-12-13T03:31:49.091Z,98464.28
2018-12-13T03:34:17.667Z,98458.12
2018-12-13T03:36:46.173Z,98459.20
2018-12-13T03:39:14.634Z,98456.27
2018-12-13T03:41:43.137Z,98452.78
2018-12-13T03:44:11.590Z,98451.42
2018-12-13T03:46:40.131Z,98456.23
2018-12-13T03:49:08.610Z,98452.20
2018-12-13T03:51:37.231Z,98443.88
2018-12-13T03:54:05.694Z,98439.30
2018-12-13T03:56:34.266Z,98441.73
2018-12-13T03:59:02.971Z,98445.23
2018-12-13T04:01:31.555Z,98443.11
2018-12-13T04:04:00.130Z,98438.31
2018-12-13T04:06:28.635Z,98442.59
2018-12-13T04:08:57.102Z,98442.03
2018-12-13T04:11:25.718Z,98443.40
2018-12-13T04:13:54.214Z,98438.00
2018-12-13T04:16:23.350Z,98439.37
2018-12-13T04:18:52.571Z,98434.26
2018-12-13T04:21:21.078Z,98436.14
2018-12-13T04:23:49.666Z,98423.27
2018-12-13T04:26:18.170Z,98427.25
2018-12-13T04:28:46.649Z,98427.52
2018-12-13T04:31:15.182Z,98422.73
2018-12-13T04:33:43.659Z,98421.11
2018-12-13T04:36:13.519Z,98417.88
2018-12-13T04:38:42.419Z,98421.11
2018-12-13T04:41:11.070Z,98413.05
2018-12-13T04:43:39.645Z,98409.31
2018-12-13T04:46:08.200Z,98406.88
2018-12-13T04:48:36.786Z,98402.62
2018-12-13T04:51:05.304Z,98403.69
2018-12-13T04:53:34.759Z,98403.95
2018-12-13T04:56:03.255Z,98398.86
2018-12-13T04:58:31.742Z,98398.06
2018-12-13T05:01:00.334Z,98398.62
2018-12-13T05:03:28.802Z,98403.95
2018-12-13T05:05:57.406Z,98407.19
2018-12-13T05:08:25.916Z,98402.06
2018-12-13T05:10:55.438Z,98406.60
2018-12-13T05:13:23.983Z,98395.59
2018-12-13T05:15:52.498Z,98397.48
2018-12-13T05:18:21.055Z,98388.38
2018-12-13T05:20:49.554Z,98388.91
2018-12-13T05:23:18.371Z,98385.42
2018-12-13T05:25:47.374Z,98381.95
2018-12-13T05:28:15.935Z,98384.10
2018-12-13T05:30:44.426Z,98379.03
2018-12-13T05:33:12.919Z,98377.41
2018-12-13T05:35:41.505Z,98377.69
2018-12-13T05:38:09.987Z,98368.84
2018-12-13T05:40:39.145Z,98373.92
2018-12-13T05:43:07.671Z,98366.95
2018-12-13T05:45:36.265Z,98369.92
2018-12-13T05:48:04.842Z,98372.30
2018-12-13T05:50:33.450Z,98361.08
2018-12-13T05:53:02.015Z,98361.35
2018-12-13T05:55:31.110Z,98361.06
2018-12-13T05:57:59.707Z,98357.85
2018-12-13T06:00:28.872Z,98351.97
2018-12-13T06:02:57.565Z,98351.97
2018-12-13T06:05:26.670Z,98355.19
2018-12-13T06:07:56.840Z,98349.55
2018-12-13T06:10:25.691Z,98347.93
2018-12-13T06:12:54.484Z,98358.14
2018-12-13T06:15:23.244Z,98352.23
2018-12-13T06:17:52.130Z,98357.06
2018-12-13T06:20:21.066Z,98351.94
2018-12-13T06:22:49.691Z,98355.72
2018-12-13T06:25:19.529Z,98351.66
2018-12-13T06:27:48.688Z,98358.66
2018-12-13T06:30:18.472Z,98355.17
2018-12-13T06:32:47.132Z,98366.44
2018-12-13T06:35:16.953Z,98356.79
2018-12-13T06:37:45.794Z,98363.73
2018-12-13T06:40:15.686Z,98369.11
2018-12-13T06:42:44.580Z,98368.59
2018-12-13T06:45:14.366Z,98376.63
2018-12-13T06:47:43.078Z,98383.03
2018-12-13T06:50:11.734Z,98384.08
2018-12-13T06:52:40.435Z,98377.37
2018-12-13T06:55:09.496Z,98372.30
2018-12-13T06:57:38.294Z,98372.02
2018-12-13T07:00:08.686Z,98366.42
2018-12-13T07:02:37.613Z,98368.03
2018-12-13T07:05:06.214Z,98365.06
2018-12-13T07:07:34.696Z,98366.16
2018-12-13T07:10:03.357Z,98370.18
2018-12-13T07:12:31.868Z,98371.52
2018-12-13T07:15:00.384Z,98373.14
2018-12-13T07:17:29.610Z,98375.55
2018-12-13T07:19:58.214Z,98372.61
2018-12-13T07:22:26.720Z,98373.92
2018-12-13T07:24:55.259Z,98375.55
2018-12-13T07:27:23.962Z,98373.94
2018-12-13T07:29:52.473Z,98367.75
2018-12-13T07:32:21.007Z,98373.92
2018-12-13T07:34:50.610Z,98365.89
2018-12-13T07:37:19.839Z,98362.69
2018-12-13T07:39:48.991Z,98361.35
2018-12-13T07:42:17.488Z,98367.25
2018-12-13T07:44:46.157Z,98366.45
2018-12-13T07:47:14.699Z,98371.80
2018-12-13T07:49:43.212Z,98367.53
2018-12-13T07:52:11.692Z,98370.19
2018-12-13T07:54:40.179Z,98365.66
2018-12-13T07:57:08.670Z,98357.85
2018-12-13T07:59:37.182Z,98361.08
2018-12-13T08:02:05.695Z,98353.02
2018-12-13T08:04:34.263Z,98362.41
2018-12-13T08:07:02.765Z,98358.39
2018-12-13T08:09:31.267Z,98354.08
2018-12-13T08:11:59.766Z,98351.42
2018-12-13T08:14:28.374Z,98348.98
2018-12-13T08:16:57.759Z,98344.97
2018-12-13T08:19:27.506Z,98353.55
2018-12-13T08:21:56.676Z,98355.98
2018-12-13T08:24:26.465Z,98357.06
2018-12-13T08:26:55.147Z,98346.86
2018-12-13T08:29:26.477Z,98350.11
2018-12-13T08:31:56.315Z,98350.08
2018-12-13T08:34:25.631Z,98347.91
2018-12-13T08:36:56.684Z,98354.08
2018-12-13T08:39:27.298Z,98347.95
2018-12-13T08:41:55.878Z,98347.65
2018-12-13T08:44:25.471Z,98341.08
2018-12-13T08:46:55.815Z,98344.75
2018-12-13T08:49:25.041Z,98342.70
2018-12-13T08:51:54.214Z,98339.59
2018-12-13T08:54:24.063Z,98339.20
2018-12-13T08:56:54.029Z,98349.39
2018-12-13T08:59:23.282Z,98341.30
2018-12-13T09:01:53.343Z,98335.34
2018-12-13T09:04:23.162Z,98333.52
2018-12-13T09:06:52.327Z,98342.05
2018-12-13T09:09:21.734Z,98336.28
2018-12-13T09:11:51.518Z,98337.33
2018-12-13T09:14:21.330Z,98331.67
2018-12-13T09:16:51.234Z,98329.38
2018-12-13T09:19:20.652Z,98337.47
2018-12-13T09:21:49.397Z,98333.77
2018-12-13T09:24:18.035Z,98333.89
2018-12-13T09:26:47.832Z,98320.58
2018-12-13T09:29:16.454Z,98325.39
2018-12-13T09:31:45.832Z,98324.60
2018-12-13T09:34:14.579Z,98322.09
2018-12-13T09:36:43.225Z,98326.86
2018-12-13T09:39:12.949Z,98329.66
2018-12-13T09:41:42.292Z,98323.55
2018-12-13T09:44:16.906Z,98322.28
2018-12-13T09:46:46.990Z,98327.44
2018-12-13T09:49:17.798Z,98323.63
2018-12-13T09:51:47.858Z,98317.05
2018-12-13T09:54:17.110Z,98320.27
2018-12-13T09:56:46.359Z,98321.31
2018-12-13T09:59:16.157Z,98317.86
2018-12-13T10:01:46.031Z,98311.44
2018-12-13T10:04:15.206Z,98304.57
2018-12-13T10:06:44.449Z,98304.31
2018-12-13T10:09:14.207Z,98309.13
2018-12-13T10:11:43.365Z,98303.23
2018-12-13T10:14:12.011Z,98295.45
2018-12-13T10:16:42.570Z,98305.09
2018-12-13T10:19:12.443Z,98297.20
2018-12-13T10:21:42.012Z,98285.32
2018-12-13T10:24:11.463Z,98281.36
2018-12-13T10:26:40.643Z,98276.96
2018-12-13T10:29:11.884Z,98275.61
2018-12-13T10:31:42.294Z,98275.11
2018-12-13T10:34:11.965Z,98273.19
2018-12-13T10:36:42.066Z,98283.20
2018-12-13T10:39:12.527Z,98270.73
2018-12-13T10:41:41.127Z,98263.60
2018-12-13T10:44:11.682Z,98268.48
2018-12-13T10:46:41.003Z,98262.36
2018-12-13T10:49:10.681Z,98261.33
2018-12-13T10:51:40.527Z,98257.69
2018-12-13T10:54:10.988Z,98252.14
2018-12-13T10:56:40.146Z,98251.05
2018-12-13T10:59:10.486Z,98247.09
2018-12-13T11:01:44.031Z,98244.87
2018-12-13T11:04:14.375Z,98240.17
2018-12-13T11:06:44.347Z,98234.95
2018-12-13T11:09:13.612Z,98226.27
2018-12-13T11:11:42.825Z,98234.85
2018-12-13T11:14:12.618Z,98219.30
2018-12-13T11:16:42.630Z,98219.42
2018-12-13T11:19:11.867Z,98237.59
2018-12-13T11:21:41.030Z,98230.88
2018-12-13T11:24:09.634Z,98220.05
2018-12-13T11:26:40.032Z,98220.25
2018-12-13T11:29:19.819Z,98221.41
2018-12-13T11:31:49.292Z,98217.34
2018-12-13T11:34:19.750Z,98212.86
2018-12-13T11:36:50.244Z,98217.95
2018-12-13T11:39:21.379Z,98210.58
2018-12-13T11:41:50.654Z,98211.28
2018-12-13T11:44:21.319Z,98218.63
2018-12-13T11:46:50.987Z,98207.59
2018-12-13T11:49:20.306Z,98207.84
2018-12-13T11:51:50.688Z,98214.17
2018-12-13T11:54:30.869Z,98204.74
2018-12-13T11:57:00.429Z,98212.91
2018-12-13T11:59:29.696Z,98207.02
2018-12-13T12:01:59.095Z,98212.27
2018-12-13T12:04:29.006Z,98207.39
2018-12-13T12:06:58.694Z,98190.67
2018-12-13T12:09:27.322Z,98210.70
2018-12-13T12:11:56.468Z,98206.89
2018-12-13T12:14:26.404Z,98216.09
2018-12-13T12:16:56.666Z,98211.69
2018-12-13T12:19:26.163Z,98203.61
2018-12-13T12:21:55.631Z,98210.73
2018-12-13T12:24:25.371Z,98207.17
2018-12-13T12:26:53.946Z,98209.66
2018-12-13T12:29:24.528Z,98214.07
2018-12-13T12:31:53.824Z,98206.45
2018-12-13T12:34:23.690Z,98215.97
2018-12-13T12:36:54.564Z,98199.88
2018-12-13T12:39:24.170Z,98215.33
2018-12-13T12:41:53.518Z,98216.64
2018-12-13T12:44:22.079Z,98203.81
2018-12-13T12:46:50.705Z,98211.50
2018-12-13T12:49:19.985Z,98217.48
2018-12-13T12:51:48.571Z,98203.09
2018-12-13T12:54:17.948Z,98198.06
2018-12-13T12:56:47.168Z,98203.26
2018-12-13T12:59:16.389Z,98192.97
2018-12-13T13:01:46.218Z,98199.69
2018-12-13T13:04:14.793Z,98196.86
2018-12-13T13:06:44.474Z,98193.47
2018-12-13T13:09:13.721Z,98201.65
2018-12-13T13:11:42.206Z,98200.53
2018-12-13T13:14:12.762Z,98197.23
2018-12-13T13:16:42.782Z,98193.06
2018-12-13T13:19:12.618Z,98191.49
2018-12-13T13:21:42.353Z,98196.24
2018-12-13T13:24:10.906Z,98196.14
2018-12-13T13:26:40.184Z,98182.35
2018-12-13T13:29:09.427Z,98193.09
2018-12-13T13:31:39.670Z,98189.95
2018-12-13T13:34:09.218Z,98193.48
2018-12-13T13:36:37.839Z,98198.00
2018-12-13T13:39:09.108Z,98197.63
2018-12-13T13:41:38.707Z,98201.03
2018-12-13T13:44:08.756Z,98200.09
2018-12-13T13:46:37.386Z,98203.54
2018-12-13T13:49:06.099Z,98196.25
2018-12-13T13:51:35.774Z,98197.47
2018-12-13T13:54:05.008Z,98198.98
2018-12-13T13:56:34.266Z,98199.63
2018-12-13T13:59:03.566Z,98205.45
2018-12-13T14:01:34.346Z,98203.95
2018-12-13T14:04:03.534Z,98199.73
2018-12-13T14:06:32.150Z,98207.86
2018-12-13T14:09:00.782Z,98214.15
2018-12-13T14:11:30.037Z,98215.34
2018-12-13T14:14:00.210Z,98208.36
2018-12-13T14:16:29.350Z,98201.91
2018-12-13T14:18:57.917Z,98207.83
2018-12-13T14:21:27.327Z,98209.41
2018-12-13T14:23:56.446Z,98201.13
2018-12-13T14:26:25.214Z,98197.33
2018-12-13T14:28:55.858Z,98190.72
2018-12-13T14:31:24.471Z,98189.04
2018-12-13T14:33:53.711Z,98185.16
2018-12-13T14:36:24.986Z,98196.54
2018-12-13T14:38:54.873Z,98188.76
2018-12-13T14:41:25.394Z,98194.70
2018-12-13T14:43:55.810Z,98195.28
2018-12-13T14:46:26.122Z,98204.30
2018-12-13T14:48:55.913Z,98205.36
2018-12-13T14:51:25.466Z,98204.11
2018-12-13T14:53:54.733Z,98205.30
2018-12-13T14:56:24.917Z,98206.22
2018-12-13T14:58:56.010Z,98210.31
2018-12-13T15:01:25.116Z,98214.52
2018-12-13T15:03:53.955Z,98210.52
2018-12-13T15:06:23.136Z,98212.63
2018-12-13T15:08:52.384Z,98205.77
2018-12-13T15:11:21.643Z,98206.02
2018-12-13T15:13:51.840Z,98204.36
2018-12-13T15:16:20.456Z,98202.81
2018-12-13T15:18:50.273Z,98207.95
2018-12-13T15:21:20.274Z,98208.00
2018-12-13T15:23:50.447Z,98206.06
2018-12-13T15:26:20.393Z,98208.55
2018-12-13T15:28:50.313Z,98197.83
2018-12-13T15:31:19.600Z,98205.77
2018-12-13T15:33:48.403Z,98207.77
2018-12-13T15:36:18.319Z,98202.58
2018-12-13T15:38:47.500Z,98210.06
2018-12-13T15:41:17.382Z,98210.95
2018-12-13T15:43:46.086Z,98210.86
2018-12-13T15:46:16.247Z,98211.80
2018-12-13T15:48:46.082Z,98214.71
2018-12-13T15:51:16.227Z,98213.66
2018-12-13T15:53:46.647Z,98207.22
2018-12-13T15:56:15.731Z,98208.98
2018-12-13T15:58:45.727Z,98223.37
2018-12-13T16:01:15.007Z,98213.20
2018-12-13T16:03:43.697Z,98220.20
2018-12-13T16:06:13.392Z,98223.47
2018-12-13T16:08:43.025Z,98223.30
2018-12-13T16:11:11.824Z,98217.02
2018-12-13T16:13:40.378Z,98218.66
2018-12-13T16:16:09.821Z,98210.63
2018-12-13T16:18:40.657Z,98211.16
2018-12-13T16:21:09.836Z,98205.22
2018-12-13T16:23:39.561Z,98215.47
2018-12-13T16:26:08.942Z,98213.00
2018-12-13T16:28:39.747Z,98219.19
2018-12-13T16:31:09.625Z,98213.22
2018-12-13T16:33:39.597Z,98216.48
2018-12-13T16:36:08.978Z,98213.43
2018-12-13T16:38:38.208Z,98214.55
2018-12-13T16:41:07.640Z,98213.22
2018-12-13T16:43:36.262Z,98215.96
2018-12-13T16:46:05.629Z,98216.23
2018-12-13T16:48:34.540Z,98210.80
2018-12-13T16:51:03.389Z,98211.16
2018-12-13T16:53:32.386Z,98217.86
2018-12-13T16:56:02.238Z,98218.69
2018-12-13T16:58:31.097Z,98215.63
2018-12-13T17:01:00.371Z,98208.74
2018-12-13T17:03:39.451Z,98210.16
2018-12-13T17:06:09.388Z,98207.41
2018-12-13T17:08:38.123Z,98210.97
2018-12-13T17:11:07.895Z,98213.40
2018-12-13T17:13:37.932Z,98218.23
2018-12-13T17:16:09.962Z,98214.46
2018-12-13T17:18:45.116Z,98209.89
2018-12-13T17:21:14.958Z,98209.87
2018-12-13T17:23:44.122Z,98199.98
2018-12-13T17:26:15.906Z,98213.84
2018-12-13T17:28:46.962Z,98205.05
2018-12-13T17:31:16.412Z,98208.53
2018-12-13T17:33:46.418Z,98205.84
2018-12-13T17:36:16.233Z,98206.04
2018-12-13T17:38:45.257Z,98204.19
2018-12-13T17:41:14.321Z,98210.69
2018-12-13T17:43:43.535Z,98208.48
2018-12-13T17:46:12.095Z,98208.27
2018-12-13T17:48:42.007Z,98212.55
2018-12-13T17:51:11.439Z,98210.69
2018-12-13T17:53:40.035Z,98209.98
2018-12-13T17:56:09.512Z,98210.59
2018-12-13T17:58:40.182Z,98205.75
2018-12-13T18:01:09.675Z,98213.65
2018-12-13T18:03:39.016Z,98208.84
2018-12-13T18:06:09.084Z,98216.81
2018-12-13T18:08:39.449Z,98213.05
2018-12-13T18:11:09.100Z,98227.55
2018-12-13T18:13:39.601Z,98218.83
2018-12-13T18:16:09.719Z,98226.88
2018-12-13T18:18:40.200Z,98221.23
2018-12-13T18:21:08.976Z,98230.09
2018-12-13T18:23:38.162Z,98231.13
2018-12-13T18:26:08.129Z,98234.84
2018-12-13T18:28:37.283Z,98232.97
2018-12-13T18:31:07.161Z,98234.26
2018-12-13T18:33:37.033Z,98233.76
2018-12-13T18:36:07.674Z,98234.77
2018-12-13T18:38:36.361Z,98232.72
2018-12-13T18:41:05.747Z,98242.09
2018-12-13T18:43:35.794Z,98241.59
2018-12-13T18:46:04.987Z,98241.77
2018-12-13T18:48:35.042Z,98248.48
2018-12-13T18:51:03.958Z,98238.33
2018-12-13T18:53:33.246Z,98237.00
2018-12-13T18:56:01.863Z,98246.41
2018-12-13T18:58:32.944Z,98238.63
2018-12-13T19:01:02.506Z,98243.42
2018-12-13T19:03:31.690Z,98235.38
2018-12-13T19:06:01.097Z,98238.86
2018-12-13T19:08:31.438Z,98236.71
2018-12-13T19:11:00.775Z,98234.80
2018-12-13T19:13:30.826Z,98238.88
2018-12-13T19:16:00.497Z,98239.08
2018-12-13T19:18:31.995Z,98228.88
2018-12-13T19:21:01.342Z,98230.00
2018-12-13T19:23:30.708Z,98225.45
2018-12-13T19:25:59.288Z,98228.94
2018-12-13T19:28:28.555Z,98230.30
2018-12-13T19:30:57.683Z,98232.36
2018-12-13T19:36:17.609Z,98233.78
2018-12-13T19:38:47.054Z,98235.58
2018-12-13T19:41:16.220Z,98232.44
2018-12-13T19:43:45.506Z,98234.31
2018-12-13T19:46:15.082Z,98233.71
2018-12-13T19:48:44.891Z,98223.22
2018-12-13T19:51:14.619Z,98232.37
2018-12-13T19:53:43.670Z,98238.55
2018-12-13T19:56:12.808Z,98232.91
2018-12-13T19:58:42.517Z,98238.33
2018-12-13T20:01:11.122Z,98240.73
2018-12-13T20:03:41.478Z,98240.92
2018-12-13T20:06:10.035Z,98239.86
2018-12-13T20:08:39.860Z,98240.77
2018-12-13T20:11:08.646Z,98240.48
2018-12-13T20:13:39.072Z,98239.67
2018-12-13T20:16:09.566Z,98243.73
2018-12-13T20:18:38.718Z,98252.84
2018-12-13T20:21:07.815Z,98250.76
2018-12-13T20:23:37.463Z,98249.42
2018-12-13T20:26:06.787Z,98255.31
2018-12-13T20:28:36.858Z,98250.44
2018-12-13T20:31:06.709Z,98247.74
2018-12-13T20:33:36.956Z,98248.06
2018-12-13T20:36:07.673Z,98249.86
2018-12-13T20:38:37.009Z,98250.16
2018-12-13T20:41:06.973Z,98255.81
2018-12-13T20:43:36.141Z,98256.33
2018-12-13T20:46:05.462Z,98258.72
2018-12-13T20:48:34.971Z,98256.08
2018-12-13T20:51:03.529Z,98261.50
2018-12-13T20:53:32.856Z,98264.66
2018-12-13T20:56:02.624Z,98256.06
2018-12-13T20:58:32.012Z,98267.06
2018-12-13T21:01:01.531Z,98268.42
2018-12-13T21:03:30.892Z,98267.98
2018-12-13T21:06:00.776Z,98267.67
2018-12-13T21:08:32.240Z,98260.48
2018-12-13T21:11:07.207Z,98256.41
2018-12-13T21:13:33.408Z,98249.42
2018-12-13T21:16:03.921Z,98254.23
2018-12-13T21:18:32.706Z,98264.99
2018-12-13T21:21:02.989Z,98267.67
2018-12-13T21:23:33.430Z,98266.06
2018-12-13T21:26:03.688Z,98263.36
2018-12-13T21:28:32.386Z,98265.84
2018-12-13T21:31:01.410Z,98267.12
2018-12-13T21:33:30.682Z,98264.77
2018-12-13T21:36:00.118Z,98262.89
2018-12-13T21:38:30.323Z,98262.90
2018-12-13T21:41:01.064Z,98257.00
2018-12-13T21:43:30.518Z,98254.31
2018-12-13T21:45:59.843Z,98250.06
2018-12-13T21:48:28.398Z,98261.06
2018-12-13T21:50:58.252Z,98252.70
2018-12-13T21:53:26.834Z,98261.83
2018-12-13T21:55:55.414Z,98266.11
2018-12-13T21:58:24.702Z,98264.81
2018-12-13T22:00:53.319Z,98259.41
2018-12-13T22:03:22.570Z,98265.58
2018-12-13T22:05:52.310Z,98267.14
2018-12-13T22:08:21.876Z,98274.16
2018-12-13T22:10:51.239Z,98277.37
2018-12-13T22:13:20.861Z,98281.13
2018-12-13T22:15:50.516Z,98278.72
2018-12-13T22:18:19.760Z,98270.41
2018-12-13T22:20:48.313Z,98272.55
2018-12-13T22:23:18.935Z,98273.03
2018-12-13T22:25:47.586Z,98278.41
2018-12-13T22:28:16.159Z,98278.44
2018-12-13T22:30:44.799Z,98285.41
2018-12-13T22:33:14.347Z,98285.92
2018-12-13T22:35:43.234Z,98271.20
2018-12-13T22:38:13.469Z,98273.34
2018-12-13T22:40:43.285Z,98273.89
2018-12-13T22:43:12.349Z,98275.45
2018-12-13T22:45:41.365Z,98283.23
2018-12-13T22:48:11.890Z,98277.95
2018-12-13T22:50:40.645Z,98278.45
2018-12-13T22:53:10.496Z,98280.64
2018-12-13T22:55:39.402Z,98281.44
2018-12-13T22:58:07.935Z,98278.45
2018-12-13T23:00:37.214Z,98278.98
2018-12-13T23:03:06.450Z,98276.34
2018-12-13T23:05:35.605Z,98277.42
2018-12-13T23:08:04.600Z,98282.73
2018-12-13T23:10:33.179Z,98277.16
2018-12-13T23:13:01.879Z,98283.31
2018-12-13T23:15:30.934Z,98285.77
2018-12-13T23:17:59.465Z,98284.13
2018-12-13T23:20:27.989Z,98287.07
2018-12-13T23:22:56.577Z,98281.66
2018-12-13T23:25:25.427Z,98274.43
2018-12-13T23:27:54.050Z,98276.04
2018-12-13T23:30:22.562Z,98269.91
2018-12-13T23:32:51.131Z,98267.73
2018-12-13T23:35:19.850Z,98280.91
2018-12-13T23:37:48.394Z,98272.59
2018-12-13T23:40:16.976Z,98272.86
2018-12-13T23:42:46.104Z,98277.95
2018-12-13T23:45:14.710Z,98274.44
2018-12-13T23:47:43.685Z,98274.73
2018-12-13T23:50:12.430Z,98274.16
2018-12-13T23:52:40.977Z,98275.55
2018-12-13T23:55:10.702Z,98281.17
2018-12-13T23:57:39.268Z,98282.24
